Time;durP1;ratioP1;P1;durP2;ratioP2;P2;SDS_P1;SDS_P2;PMS_P1;PMS_P2;Temp;Humidity;BMP_temperature;BMP_pressure;BME280_temperature;BME280_humidity;BME280_pressure;Samples;Min_cycle;Max_cycle;Signal;HPM_P1;HPM_P2
2021/12/25 00:00:54;;;;;;;;;;;;;;;;;;5003916;28;20026;-73
2021/12/25 00:03:20;;;;;;;176.95;37.17;;;;;;;;;;5006689;28;20427;-75
2021/12/25 00:05:51;;;;;;;158.03;35.43;;;;;;;;;;5018557;28;20037;-74
2021/12/25 00:08:21;;;;;;;142.23;34.33;;;;;;;;;;5016768;28;20030;-75
2021/12/25 00:10:50;;;;;;;115.53;29.45;;;;;;;;;;4994591;28;20483;-72
2021/12/25 00:13:18;;;;;;;237.20;40.63;;;;;;;;;;5013015;28;20466;-74
2021/12/25 00:15:44;;;;;;;148.75;35.00;;;;;;;;;;5013873;28;20026;-72
2021/12/25 00:18:09;;;;;;;248.63;42.90;;;;;;;;;;5013251;28;20097;-74
2021/12/25 00:20:35;;;;;;;262.63;43.37;;;;;;;;;;5014694;28;20061;-72
2021/12/25 00:23:04;;;;;;;368.57;61.57;;;;;;;;;;5013512;28;20384;-72
2021/12/25 00:25:32;;;;;;;330.13;50.50;;;;;;;;;;5002056;28;20061;-74
2021/12/25 00:31:24;;;;;;;431.05;60.35;;;;;;;;;;4961469;28;20523;-74
2021/12/25 00:33:52;;;;;;;251.15;46.83;;;;;;;;;;4998709;28;20069;-74
2021/12/25 00:36:20;;;;;;;332.38;54.10;;;;;;;;;;4994415;28;20066;-75
2021/12/25 00:38:46;;;;;;;252.10;43.58;;;;;;;;;;4996415;28;20474;-73
2021/12/25 00:41:14;;;;;;;218.65;39.08;;;;;;;;;;5004974;28;20037;-74
2021/12/25 00:43:40;;;;;;;257.08;45.88;;;;;;;;;;5023106;28;20030;-74
2021/12/25 00:46:05;;;;;;;265.10;52.97;;;;;;;;;;4996953;28;20046;-71
2021/12/25 00:48:31;;;;;;;171.80;43.63;;;;;;;;;;4993885;28;20064;-71
2021/12/25 00:50:57;;;;;;;274.80;53.47;;;;;;;;;;4981792;28;20027;-71
2021/12/25 00:53:22;;;;;;;119.63;37.60;;;;;;;;;;5009815;28;20038;-71
2021/12/25 00:55:48;;;;;;;265.63;45.87;;;;;;;;;;4992009;28;20027;-73
2021/12/25 00:58:14;;;;;;;290.23;50.57;;;;;;;;;;4995968;28;20030;-71
2021/12/25 01:00:39;;;;;;;181.63;40.33;;;;;;;;;;5002043;28;20042;-73
2021/12/25 01:03:05;;;;;;;210.83;45.07;;;;;;;;;;4991375;28;20060;-74
2021/12/25 01:05:30;;;;;;;391.97;54.17;;;;;;;;;;4997389;28;20030;-74
2021/12/25 01:07:56;;;;;;;240.30;44.63;;;;;;;;;;5005580;28;20053;-73
2021/12/25 01:10:22;;;;;;;211.90;40.53;;;;;;;;;;5014587;28;20462;-73
2021/12/25 01:13:10;;;;;;;191.07;39.93;;;;;;;;;;5004498;28;20443;-71
2021/12/25 01:16:06;;;;;;;158.07;38.30;;;;;;;;;;4995195;28;20038;-70
2021/12/25 01:31:20;;;;;;;137.57;34.20;;;;;;;;;;5000259;28;20036;-73
2021/12/25 01:34:20;;;;;;;115.20;36.15;;;;;;;;;;4994421;28;20072;-73
2021/12/25 01:39:28;;;;;;;87.47;27.77;;;;;;;;;;4995971;28;20398;-74
2021/12/25 01:47:46;;;;;;;137.77;32.92;;;;;;;;;;5008469;28;20096;-71
2021/12/25 01:50:06;;;;;;;87.55;29.00;;;;;;;;;;5001136;28;20050;-71
2021/12/25 01:52:32;;;;;;;76.63;26.08;;;;;;;;;;5005357;28;20040;-71
2021/12/25 01:55:02;;;;;;;70.10;25.00;;;;;;;;;;5012017;28;20113;-71
2021/12/25 01:57:29;;;;;;;86.32;26.25;;;;;;;;;;5011541;28;20426;-71
2021/12/25 01:59:56;;;;;;;113.78;28.65;;;;;;;;;;5023311;28;20470;-71
2021/12/25 02:02:21;;;;;;;;;;;;;;;;;;5005927;28;20050;-72
2021/12/25 02:04:46;;;;;;;63.22;25.38;;;;;;;;;;5014598;28;19913;-72
2021/12/25 02:07:12;;;;;;;81.47;25.77;;;;;;;;;;5009249;28;20442;-71
2021/12/25 02:09:37;;;;;;;52.13;20.93;;;;;;;;;;5004132;28;20034;-71
2021/12/25 02:12:03;;;;;;;79.33;23.90;;;;;;;;;;4997266;28;20034;-70
2021/12/25 02:14:30;;;;;;;482.67;56.70;;;;;;;;;;5009467;28;20041;-71
2021/12/25 02:17:01;;;;;;;467.63;49.90;;;;;;;;;;5003968;28;20411;-71
2021/12/25 02:20:00;;;;;;;348.15;41.65;;;;;;;;;;5004080;28;20128;-71
2021/12/25 02:22:19;;;;;;;85.25;27.30;;;;;;;;;;5003988;28;20061;-71
2021/12/25 02:24:45;;;;;;;69.18;25.65;;;;;;;;;;5013138;28;20042;-71
2021/12/25 02:27:11;;;;;;;66.33;21.17;;;;;;;;;;5027935;28;20037;-72
2021/12/25 02:29:37;;;;;;;96.90;24.00;;;;;;;;;;5015467;28;20101;-71
2021/12/25 02:32:03;;;;;;;110.87;22.57;;;;;;;;;;5007229;28;20069;-71
2021/12/25 02:34:29;;;;;;;64.22;17.92;;;;;;;;;;5007145;28;20022;-71
2021/12/25 02:36:54;;;;;;;95.87;21.67;;;;;;;;;;4998608;28;20052;-71
2021/12/25 02:39:20;;;;;;;160.73;26.00;;;;;;;;;;5000696;28;20053;-70
2021/12/25 02:41:45;;;;;;;78.97;20.37;;;;;;;;;;5002934;28;20073;-71
2021/12/25 02:44:11;;;;;;;160.20;27.60;;;;;;;;;;5021449;28;20045;-71
2021/12/25 02:46:36;;;;;;;73.53;19.93;;;;;;;;;;5002710;28;20041;-71
2021/12/25 02:49:02;;;;;;;211.80;32.13;;;;;;;;;;5003847;28;20029;-70
2021/12/25 02:51:28;;;;;;;298.27;29.60;;;;;;;;;;5005567;28;20398;-71
2021/12/25 02:53:54;;;;;;;379.07;39.87;;;;;;;;;;5020679;28;20038;-71
2021/12/25 02:56:20;;;;;;;421.25;40.10;;;;;;;;;;5015184;28;20022;-71
2021/12/25 02:58:45;;;;;;;361.27;34.33;;;;;;;;;;4997044;28;20393;-71
2021/12/25 03:01:15;;;;;;;367.20;36.37;;;;;;;;;;4997561;28;20034;-72
2021/12/25 03:03:42;;;;;;;110.10;21.67;;;;;;;;;;4997939;28;20602;-71
2021/12/25 03:06:08;;;;;;;;;;;;;;;;;;5016425;28;20026;-70
2021/12/25 03:08:34;;;;;;;247.70;32.15;;;;;;;;;;5004237;28;20289;-71
2021/12/25 03:11:00;;;;;;;143.52;22.50;;;;;;;;;;5009820;28;20451;-71
2021/12/25 03:16:03;;;;;;;321.33;37.85;;;;;;;;;;4998162;28;20387;-70
2021/12/25 03:18:33;;;;;;;185.48;28.75;;;;;;;;;;4983823;28;20038;-71
2021/12/25 03:21:00;;;;;;;228.70;33.85;;;;;;;;;;5003053;28;20376;-71
2021/12/25 03:23:28;;;;;;;160.38;26.63;;;;;;;;;;5000677;28;20457;-70
2021/12/25 03:25:55;;;;;;;104.72;23.45;;;;;;;;;;4994844;28;20026;-71
2021/12/25 03:28:23;;;;;;;59.92;17.25;;;;;;;;;;4994248;28;20038;-72
2021/12/25 03:30:49;;;;;;;297.05;42.30;;;;;;;;;;5025375;28;20489;-71
2021/12/25 03:33:17;;;;;;;134.67;26.27;;;;;;;;;;5000434;28;20038;-72
2021/12/25 03:35:43;;;;;;;244.15;40.08;;;;;;;;;;5007417;28;20287;-71
2021/12/25 03:38:11;;;;;;;145.67;32.77;;;;;;;;;;5018769;28;20088;-71
2021/12/25 03:40:37;;;;;;;92.18;20.77;;;;;;;;;;5020572;28;20400;-71
2021/12/25 03:43:03;;;;;;;81.30;23.00;;;;;;;;;;5005701;28;20035;-71
2021/12/25 03:45:31;;;;;;;98.22;23.80;;;;;;;;;;4992549;28;20042;-71
2021/12/25 03:59:00;;;;;;;145.00;32.83;;;;;;;;;;5004475;28;20049;-71
2021/12/25 04:06:29;;;;;;;111.07;27.42;;;;;;;;;;5008361;28;20112;-71
2021/12/25 04:08:56;;;;;;;89.57;24.60;;;;;;;;;;5013534;28;20142;-71
2021/12/25 04:11:31;;;;;;;45.10;16.13;;;;;;;;;;5011441;28;20038;-72
2021/12/25 04:13:56;;;;;;;54.78;18.45;;;;;;;;;;5001576;28;20034;-71
2021/12/25 04:16:22;;;;;;;45.90;15.67;;;;;;;;;;5016780;28;20033;-71
2021/12/25 04:18:48;;;;;;;48.27;16.17;;;;;;;;;;5015216;28;20038;-71
2021/12/25 04:21:13;;;;;;;52.40;17.57;;;;;;;;;;5000313;28;20064;-72
2021/12/25 04:23:40;;;;;;;62.93;21.00;;;;;;;;;;5010991;28;20045;-71
2021/12/25 04:26:05;;;;;;;93.88;21.85;;;;;;;;;;5009074;28;20034;-71
2021/12/25 04:28:43;;;;;;;75.47;20.70;;;;;;;;;;4998229;28;20034;-72
2021/12/25 05:04:02;;;;;;;70.70;19.58;;;;;;;;;;4995966;28;20473;-70
2021/12/25 05:06:27;;;;;;;71.80;19.58;;;;;;;;;;4996925;28;20038;-71
2021/12/25 05:08:54;;;;;;;72.23;21.00;;;;;;;;;;4998736;28;20038;-71
2021/12/25 05:11:20;;;;;;;57.55;18.60;;;;;;;;;;5017728;28;20034;-71
2021/12/25 05:13:48;;;;;;;72.50;20.83;;;;;;;;;;5018305;28;20050;-71
2021/12/25 05:16:14;;;;;;;68.88;18.42;;;;;;;;;;4999992;28;20037;-72
2021/12/25 05:18:40;;;;;;;65.50;18.70;;;;;;;;;;5014459;28;20433;-71
2021/12/25 05:21:07;;;;;;;68.10;19.90;;;;;;;;;;5006250;28;20038;-71
2021/12/25 05:23:32;;;;;;;62.58;16.58;;;;;;;;;;5013317;28;20390;-71
2021/12/25 05:25:57;;;;;;;78.77;20.87;;;;;;;;;;5011970;28;20042;-71
2021/12/25 05:28:27;;;;;;;70.23;18.27;;;;;;;;;;5013179;28;20105;-71
2021/12/25 05:30:53;;;;;;;82.32;20.30;;;;;;;;;;4997509;28;20129;-71
2021/12/25 05:33:20;;;;;;;84.68;20.98;;;;;;;;;;4997780;28;20034;-71
2021/12/25 05:35:46;;;;;;;77.85;19.35;;;;;;;;;;4999073;28;20042;-70
2021/12/25 05:38:14;;;;;;;48.53;14.30;;;;;;;;;;5005098;28;20049;-71
2021/12/25 05:40:44;;;;;;;67.03;18.55;;;;;;;;;;5000252;28;20034;-71
2021/12/25 05:43:10;;;;;;;57.30;17.80;;;;;;;;;;5005315;28;20023;-71
2021/12/25 05:45:35;;;;;;;71.20;18.40;;;;;;;;;;5004633;28;20089;-71
2021/12/25 05:48:01;;;;;;;58.33;16.77;;;;;;;;;;5003625;28;20101;-71
2021/12/25 05:50:26;;;;;;;68.67;17.37;;;;;;;;;;4988513;28;20070;-73
2021/12/25 05:52:54;;;;;;;61.27;16.97;;;;;;;;;;5011174;28;20069;-71
2021/12/25 05:55:19;;;;;;;50.63;15.07;;;;;;;;;;4979147;28;20459;-71
2021/12/25 05:57:44;;;;;;;48.50;15.83;;;;;;;;;;4999982;28;20117;-71
2021/12/25 06:00:10;;;;;;;60.47;15.33;;;;;;;;;;4997043;28;20043;-71
2021/12/25 06:02:36;;;;;;;59.13;16.63;;;;;;;;;;4996620;28;20180;-74
2021/12/25 06:05:04;;;;;;;54.83;14.88;;;;;;;;;;5011715;28;20061;-72
2021/12/25 06:07:31;;;;;;;54.92;16.10;;;;;;;;;;5000847;28;20406;-73
2021/12/25 06:09:56;;;;;;;;;;;;;;;;;;5006340;28;20364;-73
2021/12/25 06:12:22;;;;;;;43.75;14.38;;;;;;;;;;5015487;28;19944;-73
2021/12/25 06:14:48;;;;;;;43.55;14.50;;;;;;;;;;5001120;28;20052;-70
2021/12/25 06:17:14;;;;;;;35.77;13.90;;;;;;;;;;5000018;28;20112;-70
2021/12/25 06:19:39;;;;;;;45.70;14.10;;;;;;;;;;5018013;28;20026;-70
2021/12/25 06:22:04;;;;;;;54.73;16.50;;;;;;;;;;4993447;28;20060;-70
2021/12/25 06:24:31;;;;;;;47.97;13.60;;;;;;;;;;5006779;28;20029;-70
2021/12/25 06:26:57;;;;;;;43.75;15.98;;;;;;;;;;5004599;28;20521;-70
2021/12/25 06:29:23;;;;;;;55.03;16.53;;;;;;;;;;5011748;28;20042;-71
2021/12/25 06:31:50;;;;;;;43.97;14.33;;;;;;;;;;5002014;28;20038;-70
2021/12/25 06:34:15;;;;;;;;;;;;;;;;;;5023354;28;20441;-71
2021/12/25 06:36:40;;;;;;;48.47;14.38;;;;;;;;;;5026077;28;19918;-71
2021/12/25 06:39:07;;;;;;;40.47;12.90;;;;;;;;;;5008554;28;20030;-70
2021/12/25 06:41:33;;;;;;;43.08;15.77;;;;;;;;;;5007478;28;20427;-70
2021/12/25 06:43:58;;;;;;;40.23;12.37;;;;;;;;;;5008979;28;20070;-70
2021/12/25 06:46:23;;;;;;;38.53;14.83;;;;;;;;;;5004474;28;20495;-70
2021/12/25 06:48:49;;;;;;;44.03;15.27;;;;;;;;;;5006616;28;20069;-71
2021/12/25 06:51:14;;;;;;;40.97;13.17;;;;;;;;;;5012857;28;20046;-71
2021/12/25 06:53:40;;;;;;;47.77;14.70;;;;;;;;;;4996984;28;20026;-70
2021/12/25 06:56:05;;;;;;;46.07;15.57;;;;;;;;;;4999307;28;20144;-72
2021/12/25 06:58:31;;;;;;;47.40;15.13;;;;;;;;;;5002420;28;20042;-72
2021/12/25 07:00:56;;;;;;;39.97;13.60;;;;;;;;;;5000245;28;20034;-70
2021/12/25 07:03:22;;;;;;;41.13;13.97;;;;;;;;;;5002037;28;20153;-72
2021/12/25 07:05:47;;;;;;;44.07;14.03;;;;;;;;;;5001332;28;20769;-71
2021/12/25 07:08:12;;;;;;;45.20;14.83;;;;;;;;;;5020374;28;20132;-72
2021/12/25 07:10:38;;;;;;;49.03;15.73;;;;;;;;;;5007735;28;20029;-72
2021/12/25 07:13:03;;;;;;;43.40;14.33;;;;;;;;;;5004865;28;20042;-72
2021/12/25 07:15:29;;;;;;;49.97;16.23;;;;;;;;;;4999574;28;20181;-72
2021/12/25 07:17:54;;;;;;;42.10;16.50;;;;;;;;;;4994334;28;20041;-72
2021/12/25 07:20:20;;;;;;;40.50;14.93;;;;;;;;;;5012254;28;20040;-72
2021/12/25 07:22:45;;;;;;;47.80;15.53;;;;;;;;;;4997239;28;20071;-72
2021/12/25 07:25:11;;;;;;;45.20;14.87;;;;;;;;;;5000195;28;20426;-72
2021/12/25 07:27:36;;;;;;;36.67;13.13;;;;;;;;;;4995762;28;20070;-72
2021/12/25 07:30:05;;;;;;;28.43;10.90;;;;;;;;;;5018461;28;20037;-71
2021/12/25 07:32:30;;;;;;;37.15;12.38;;;;;;;;;;4999409;28;20038;-74
2021/12/25 07:34:56;;;;;;;31.73;11.80;;;;;;;;;;4996426;28;20042;-74
2021/12/25 07:37:22;;;;;;;32.43;11.27;;;;;;;;;;4995429;28;20489;-74
2021/12/25 07:39:47;;;;;;;32.73;12.33;;;;;;;;;;5019095;28;20036;-74
2021/12/25 07:42:13;;;;;;;29.60;10.83;;;;;;;;;;4996265;28;20121;-74
2021/12/25 07:44:38;;;;;;;30.70;10.70;;;;;;;;;;4997456;28;20471;-71
2021/12/25 07:47:09;;;;;;;35.10;12.53;;;;;;;;;;4999363;28;20049;-71
2021/12/25 07:49:35;;;;;;;23.30;10.02;;;;;;;;;;5000455;28;20038;-71
2021/12/25 07:52:00;;;;;;;32.17;11.50;;;;;;;;;;4996958;28;20037;-70
2021/12/25 07:54:25;;;;;;;23.97;9.20;;;;;;;;;;4997165;28;20109;-72
2021/12/25 07:56:51;;;;;;;25.30;11.70;;;;;;;;;;4998415;28;20387;-70
2021/12/25 07:59:16;;;;;;;23.67;10.73;;;;;;;;;;5000213;28;20036;-71
2021/12/25 08:01:42;;;;;;;23.13;10.70;;;;;;;;;;4995833;28;20355;-71
2021/12/25 08:04:09;;;;;;;25.07;9.63;;;;;;;;;;5017828;28;20038;-71
2021/12/25 08:06:35;;;;;;;27.98;10.50;;;;;;;;;;4989185;28;20443;-72
2021/12/25 08:09:02;;;;;;;24.17;8.93;;;;;;;;;;5002323;28;20483;-70
2021/12/25 08:11:28;;;;;;;23.60;9.65;;;;;;;;;;5006330;28;20128;-71
2021/12/25 08:13:54;;;;;;;20.13;9.68;;;;;;;;;;5004483;28;20324;-71
2021/12/25 08:16:20;;;;;;;25.10;11.02;;;;;;;;;;5009733;28;20045;-73
2021/12/25 08:18:45;;;;;;;23.87;8.83;;;;;;;;;;4993296;28;20133;-72
2021/12/25 08:21:10;;;;;;;20.40;8.47;;;;;;;;;;5010846;28;20021;-71
2021/12/25 08:23:36;;;;;;;24.83;10.30;;;;;;;;;;5009653;28;20571;-71
2021/12/25 08:26:03;;;;;;;19.27;9.20;;;;;;;;;;5003883;28;20534;-71
2021/12/25 08:28:29;;;;;;;22.90;9.02;;;;;;;;;;5016521;28;20474;-71
2021/12/25 08:30:54;;;;;;;27.70;11.67;;;;;;;;;;5004168;28;20173;-73
2021/12/25 08:33:20;;;;;;;19.60;8.93;;;;;;;;;;5000720;28;20069;-74
2021/12/25 08:35:45;;;;;;;22.00;9.60;;;;;;;;;;5005926;28;20033;-73
2021/12/25 08:38:11;;;;;;;24.30;10.07;;;;;;;;;;5002624;28;20038;-73
2021/12/25 08:40:38;;;;;;;21.92;11.18;;;;;;;;;;5007888;28;20037;-74
2021/12/25 08:43:05;;;;;;;35.75;10.55;;;;;;;;;;4999130;28;20026;-71
2021/12/25 08:48:03;;;;;;;24.73;9.30;;;;;;;;;;4993622;28;20050;-71
2021/12/25 08:50:29;;;;;;;22.10;9.93;;;;;;;;;;5022318;28;20042;-71
2021/12/25 08:52:54;;;;;;;17.77;8.10;;;;;;;;;;5007448;28;20152;-71
2021/12/25 08:55:20;;;;;;;18.77;9.03;;;;;;;;;;5001352;28;20096;-72
2021/12/25 08:57:45;;;;;;;25.70;9.57;;;;;;;;;;4999343;28;20033;-71
2021/12/25 09:00:11;;;;;;;21.67;9.93;;;;;;;;;;5017034;28;20169;-71
2021/12/25 09:02:37;;;;;;;25.87;9.37;;;;;;;;;;5002382;28;20453;-71
2021/12/25 09:05:03;;;;;;;21.43;9.20;;;;;;;;;;5005010;28;20495;-71
2021/12/25 09:07:29;;;;;;;21.60;8.48;;;;;;;;;;5015020;28;20066;-71
2021/12/25 09:09:55;;;;;;;19.98;8.85;;;;;;;;;;4992232;28;20043;-71
2021/12/25 09:12:22;;;;;;;21.37;9.73;;;;;;;;;;4996451;28;20041;-71
2021/12/25 09:14:47;;;;;;;;;;;;;;;;;;4984037;28;20026;-71
2021/12/25 09:17:14;;;;;;;18.95;9.40;;;;;;;;;;4996861;28;19918;-70
2021/12/25 09:19:40;;;;;;;22.77;9.52;;;;;;;;;;4993946;28;20042;-71
2021/12/25 09:22:07;;;;;;;18.92;8.75;;;;;;;;;;5000429;28;20053;-71
2021/12/25 09:24:34;;;;;;;25.95;10.18;;;;;;;;;;4996549;28;20386;-71
2021/12/25 09:26:59;;;;;;;21.05;9.88;;;;;;;;;;4997794;28;20448;-71
2021/12/25 09:29:25;;;;;;;20.03;8.40;;;;;;;;;;5009457;28;20071;-71
2021/12/25 09:31:50;;;;;;;21.20;9.77;;;;;;;;;;4994889;28;20101;-72
2021/12/25 09:34:16;;;;;;;22.10;8.97;;;;;;;;;;4994874;28;20479;-71
2021/12/25 09:36:41;;;;;;;21.47;8.13;;;;;;;;;;4998559;28;20038;-72
2021/12/25 09:39:07;;;;;;;19.93;8.63;;;;;;;;;;4994358;28;20038;-72
2021/12/25 09:41:34;;;;;;;24.15;9.63;;;;;;;;;;4995369;28;20517;-71
2021/12/25 09:44:01;;;;;;;20.55;8.57;;;;;;;;;;5008910;28;20058;-71
2021/12/25 09:46:26;;;;;;;18.92;9.23;;;;;;;;;;5014606;28;20034;-71
2021/12/25 09:48:52;;;;;;;19.47;8.50;;;;;;;;;;4992766;28;20531;-72
2021/12/25 09:51:19;;;;;;;18.00;9.10;;;;;;;;;;4992578;28;20517;-72
2021/12/25 09:54:09;;;;;;;16.17;6.63;;;;;;;;;;5007974;28;20360;-72
2021/12/25 09:56:39;;;;;;;20.25;8.65;;;;;;;;;;5026381;28;20438;-72
2021/12/25 09:59:12;;;;;;;18.48;8.95;;;;;;;;;;5012965;28;20507;-72
2021/12/25 10:01:43;;;;;;;17.15;8.02;;;;;;;;;;4996543;28;20022;-72
2021/12/25 10:04:11;;;;;;;14.50;7.40;;;;;;;;;;5026776;28;20070;-72
2021/12/25 10:06:40;;;;;;;15.20;7.45;;;;;;;;;;5005707;28;20089;-72
2021/12/25 10:09:21;;;;;;;15.85;7.80;;;;;;;;;;5004763;28;20097;-70
2021/12/25 10:12:03;;;;;;;17.60;8.32;;;;;;;;;;4994530;28;20097;-71
2021/12/25 10:14:29;;;;;;;14.77;8.23;;;;;;;;;;4998702;28;20129;-71
2021/12/25 10:16:55;;;;;;;16.87;7.53;;;;;;;;;;5004632;28;20450;-71
2021/12/25 10:19:23;;;;;;;21.60;8.82;;;;;;;;;;4994897;28;20058;-71
2021/12/25 10:22:06;;;;;;;19.75;7.63;;;;;;;;;;4999436;28;20048;-71
2021/12/25 10:24:37;;;;;;;17.55;7.72;;;;;;;;;;5003280;28;20053;-70
2021/12/25 10:27:15;;;;;;;20.27;9.07;;;;;;;;;;4998474;28;20037;-75
2021/12/25 10:29:41;;;;;;;14.75;8.02;;;;;;;;;;4993120;28;20045;-70
2021/12/25 10:32:36;;;;;;;18.33;9.30;;;;;;;;;;5023154;28;20401;-71
2021/12/25 10:35:21;;;;;;;19.73;8.98;;;;;;;;;;4975301;28;20411;-71
2021/12/25 10:37:48;;;;;;;20.98;9.82;;;;;;;;;;4999108;28;20026;-71
2021/12/25 10:40:18;;;;;;;14.52;8.05;;;;;;;;;;5013153;28;20145;-71
2021/12/25 10:42:45;;;;;;;18.00;8.93;;;;;;;;;;5001677;28;20080;-71
2021/12/25 10:45:14;;;;;;;20.63;10.00;;;;;;;;;;4995709;28;20053;-71
2021/12/25 10:47:39;;;;;;;22.08;10.90;;;;;;;;;;5008681;28;20042;-71
2021/12/25 10:50:17;;;;;;;19.77;8.57;;;;;;;;;;5011404;28;20034;-71
2021/12/25 10:52:46;;;;;;;;;;;;;;;;;;5012391;28;20034;-73
2021/12/25 10:55:24;;;;;;;14.35;5.93;;;;;;;;;;5010669;28;19922;-71
2021/12/25 10:57:50;;;;;;;;;;;;;;;;;;4974813;28;20044;-71
2021/12/25 11:00:21;;;;;;;17.35;8.30;;;;;;;;;;4992947;28;20444;-71
2021/12/25 11:03:02;;;;;;;22.50;9.35;;;;;;;;;;4981258;28;20039;-71
2021/12/25 11:05:30;;;;;;;22.58;9.50;;;;;;;;;;4989489;28;20475;-72
2021/12/25 11:08:07;;;;;;;24.05;11.05;;;;;;;;;;5006968;28;20078;-71
2021/12/25 11:10:53;;;;;;;24.05;9.60;;;;;;;;;;5005931;28;20034;-71
2021/12/25 11:13:37;;;;;;;24.45;10.27;;;;;;;;;;4992411;28;20037;-71
2021/12/25 11:16:12;;;;;;;25.00;10.70;;;;;;;;;;4999367;28;20046;-71
2021/12/25 11:21:58;;;;;;;22.40;9.23;;;;;;;;;;5017946;28;20057;-74
2021/12/25 11:24:37;;;;;;;23.83;10.73;;;;;;;;;;4997970;28;20057;-73
2021/12/25 11:27:06;;;;;;;29.13;12.20;;;;;;;;;;5018902;28;20635;-73
2021/12/25 11:29:35;;;;;;;27.98;12.73;;;;;;;;;;5001261;28;20368;-73
2021/12/25 11:32:03;;;;;;;31.33;13.18;;;;;;;;;;4987846;28;20049;-73
2021/12/25 11:34:28;;;;;;;29.65;12.32;;;;;;;;;;5016231;28;20034;-73
2021/12/25 11:36:57;;;;;;;21.03;9.70;;;;;;;;;;5007627;28;20403;-73
2021/12/25 11:39:26;;;;;;;33.60;12.30;;;;;;;;;;5000799;28;20044;-74
2021/12/25 11:41:56;;;;;;;22.20;10.13;;;;;;;;;;4999506;28;20096;-71
2021/12/25 11:44:32;;;;;;;28.83;12.82;;;;;;;;;;4978976;28;20418;-71
2021/12/25 11:46:58;;;;;;;30.13;12.00;;;;;;;;;;5013766;28;20042;-70
2021/12/25 11:49:23;;;;;;;24.83;11.43;;;;;;;;;;5000118;28;20116;-71
2021/12/25 11:51:50;;;;;;;23.53;9.60;;;;;;;;;;4995512;28;20058;-70
2021/12/25 11:59:52;;;;;;;22.63;9.45;;;;;;;;;;5003814;28;20046;-71
2021/12/25 12:02:38;;;;;;;29.45;10.02;;;;;;;;;;4992762;28;20038;-73
2021/12/25 12:05:17;;;;;;;30.10;11.40;;;;;;;;;;5012372;28;20046;-73
2021/12/25 12:07:58;;;;;;;20.50;8.20;;;;;;;;;;5003409;28;20034;-73
2021/12/25 12:10:45;;;;;;;19.45;7.95;;;;;;;;;;5012122;28;20053;-74
2021/12/25 12:13:29;;;;;;;24.85;9.73;;;;;;;;;;4990250;28;20109;-73
2021/12/25 12:16:01;;;;;;;21.75;8.90;;;;;;;;;;5001591;28;20081;-74
2021/12/25 12:18:31;;;;;;;25.38;10.13;;;;;;;;;;5008165;28;20041;-72
2021/12/25 12:21:18;;;;;;;17.35;8.27;;;;;;;;;;4996764;28;20042;-72
2021/12/25 12:24:22;;;;;;;20.77;8.55;;;;;;;;;;4997547;28;20050;-73
2021/12/25 12:26:47;;;;;;;24.90;9.35;;;;;;;;;;4996838;28;20104;-72
2021/12/25 12:29:13;;;;;;;27.85;10.88;;;;;;;;;;4998030;28;20034;-72
2021/12/25 12:31:40;;;;;;;16.55;7.88;;;;;;;;;;4994059;28;20442;-74
2021/12/25 12:34:24;;;;;;;;;;;;;;;;;;5026891;28;20063;-74
2021/12/25 12:36:50;;;;;;;17.05;7.72;;;;;;;;;;5007126;28;19920;-74
2021/12/25 12:39:20;;;;;;;21.87;6.57;;;;;;;;;;5012252;28;20046;-74
2021/12/25 12:41:54;;;;;;;14.25;7.18;;;;;;;;;;5008961;28;20018;-74
2021/12/25 12:44:28;;;;;;;16.05;7.55;;;;;;;;;;5017309;28;20133;-71
2021/12/25 12:46:58;;;;;;;16.42;7.32;;;;;;;;;;4999861;28;20036;-72
2021/12/25 12:49:32;;;;;;;15.63;7.38;;;;;;;;;;5003377;28;20097;-72
2021/12/25 12:52:31;;;;;;;14.48;7.72;;;;;;;;;;5012523;28;20030;-72
2021/12/25 12:55:02;;;;;;;16.17;7.05;;;;;;;;;;4990821;28;20046;-71
2021/12/25 12:57:32;;;;;;;12.98;6.60;;;;;;;;;;4995223;28;20026;-72
2021/12/25 13:00:18;;;;;;;14.63;7.18;;;;;;;;;;4997840;28;20043;-71
2021/12/25 13:02:47;;;;;;;13.60;7.30;;;;;;;;;;4982630;28;20026;-74
2021/12/25 13:05:14;;;;;;;9.52;5.47;;;;;;;;;;4997443;28;20052;-74
2021/12/25 13:07:42;;;;;;;;;;;;;;;;;;5017466;28;20036;-74
2021/12/25 13:10:18;;;;;;;11.98;4.55;;;;;;;;;;4997393;28;19914;-76
2021/12/25 13:12:47;;;;;;;11.05;6.53;;;;;;;;;;4999442;28;20045;-70
2021/12/25 13:15:26;;;;;;;12.73;7.28;;;;;;;;;;4991654;28;20458;-71
2021/12/25 13:17:51;;;;;;;13.43;7.05;;;;;;;;;;4988189;28;20449;-78
2021/12/25 13:20:17;;;;;;;11.10;7.17;;;;;;;;;;4996088;28;20124;-74
2021/12/25 13:22:43;;;;;;;14.73;8.20;;;;;;;;;;4990271;28;20072;-73
2021/12/25 13:25:11;;;;;;;13.37;7.37;;;;;;;;;;5010908;28;20494;-74
2021/12/25 13:27:37;;;;;;;15.68;8.70;;;;;;;;;;5012855;28;20025;-73
2021/12/25 13:30:17;;;;;;;15.82;8.40;;;;;;;;;;4995058;28;20034;-73
2021/12/25 13:32:43;;;;;;;12.60;7.40;;;;;;;;;;5007858;28;20038;-74
2021/12/25 13:35:12;;;;;;;12.38;7.57;;;;;;;;;;4994216;28;20042;-74
2021/12/25 13:37:37;;;;;;;13.88;7.53;;;;;;;;;;4997126;28;20038;-74
2021/12/25 13:40:09;;;;;;;17.13;9.37;;;;;;;;;;4998475;28;20049;-74
2021/12/25 13:42:35;;;;;;;13.50;7.22;;;;;;;;;;5016902;28;20043;-73
2021/12/25 13:45:01;;;;;;;15.97;7.37;;;;;;;;;;5000979;28;20394;-74
2021/12/25 13:47:27;;;;;;;11.90;7.90;;;;;;;;;;4992856;28;20039;-75
2021/12/25 13:49:55;;;;;;;21.17;8.70;;;;;;;;;;5016412;28;20064;-71
2021/12/25 13:52:20;;;;;;;15.55;8.02;;;;;;;;;;4998997;28;20104;-71
2021/12/25 13:54:55;;;;;;;12.77;6.70;;;;;;;;;;5005285;28;20038;-70
2021/12/25 13:57:21;;;;;;;10.38;6.70;;;;;;;;;;4999497;28;20045;-71
2021/12/25 13:59:55;;;;;;;13.15;7.93;;;;;;;;;;5027351;28;20084;-70
2021/12/25 14:02:22;;;;;;;14.15;7.05;;;;;;;;;;5012213;28;20458;-71
2021/12/25 14:04:48;;;;;;;;;;;;;;;;;;5007600;28;20030;-70
2021/12/25 14:07:16;;;;;;;15.40;6.88;;;;;;;;;;5002645;28;20029;-71
2021/12/25 14:10:13;;;;;;;11.35;6.20;;;;;;;;;;5005198;28;20399;-71
2021/12/25 14:12:43;;;;;;;12.88;8.23;;;;;;;;;;4996492;28;20137;-74
2021/12/25 14:15:10;;;;;;;13.50;6.72;;;;;;;;;;5002121;28;20053;-71
2021/12/25 14:17:36;;;;;;;12.20;7.20;;;;;;;;;;4998676;28;20031;-71
2021/12/25 14:20:05;;;;;;;15.65;6.97;;;;;;;;;;5024426;28;20034;-71
2021/12/25 14:22:30;;;;;;;15.45;8.45;;;;;;;;;;5006140;28;20054;-71
2021/12/25 14:24:56;;;;;;;17.57;7.80;;;;;;;;;;5000282;28;20041;-71
2021/12/25 14:27:22;;;;;;;12.33;6.57;;;;;;;;;;5012107;28;20034;-73
2021/12/25 14:29:49;;;;;;;13.52;6.05;;;;;;;;;;5010080;28;20015;-73
2021/12/25 14:32:22;;;;;;;9.60;6.65;;;;;;;;;;4995717;28;20036;-74
2021/12/25 14:34:47;;;;;;;13.77;7.15;;;;;;;;;;4998450;28;20038;-73
2021/12/25 14:37:14;;;;;;;15.03;7.50;;;;;;;;;;4999587;28;20037;-74
2021/12/25 14:39:40;;;;;;;11.93;5.85;;;;;;;;;;4994103;28;20038;-74
2021/12/25 14:42:05;;;;;;;14.43;8.37;;;;;;;;;;4999379;28;20053;-71
2021/12/25 14:44:32;;;;;;;11.40;6.47;;;;;;;;;;5000090;28;20045;-72
2021/12/25 14:47:13;;;;;;;11.93;5.97;;;;;;;;;;5003348;28;20029;-72
2021/12/25 14:49:45;;;;;;;10.95;7.72;;;;;;;;;;5000789;28;20038;-72
2021/12/25 14:52:12;;;;;;;10.57;6.20;;;;;;;;;;4992388;28;20030;-73
2021/12/25 14:54:37;;;;;;;;;;;;;;;;;;5002232;28;20035;-72
2021/12/25 14:57:03;;;;;;;10.85;6.70;;;;;;;;;;5020546;28;20271;-71
2021/12/25 14:59:29;;;;;;;9.70;6.50;;;;;;;;;;4996867;28;20034;-76
2021/12/25 15:01:59;;;;;;;8.38;5.95;;;;;;;;;;4995980;28;20291;-74
2021/12/25 15:04:28;;;;;;;12.43;7.15;;;;;;;;;;4994447;28;20052;-75
2021/12/25 15:06:56;;;;;;;14.15;7.20;;;;;;;;;;5008770;28;20042;-77
2021/12/25 15:09:25;;;;;;;12.43;7.25;;;;;;;;;;5002631;28;20081;-74
2021/12/25 15:12:13;;;;;;;10.40;6.45;;;;;;;;;;5008013;28;20041;-74
2021/12/25 15:14:50;;;;;;;12.50;7.15;;;;;;;;;;4983759;28;20049;-75
2021/12/25 15:17:24;;;;;;;17.40;6.78;;;;;;;;;;4988552;28;20046;-75
2021/12/25 15:20:09;;;;;;;11.65;5.95;;;;;;;;;;5007429;28;20069;-75
2021/12/25 15:22:37;;;;;;;13.60;7.03;;;;;;;;;;4992161;28;20111;-75
2021/12/25 15:25:07;;;;;;;10.80;5.70;;;;;;;;;;4975323;28;20038;-75
2021/12/25 15:27:47;;;;;;;15.85;7.47;;;;;;;;;;4992510;28;20026;-75
2021/12/25 15:30:17;;;;;;;15.63;8.65;;;;;;;;;;5005521;28;20042;-74
2021/12/25 15:32:48;;;;;;;16.73;9.50;;;;;;;;;;5005785;28;20034;-74
2021/12/25 15:35:18;;;;;;;15.55;8.82;;;;;;;;;;4991623;28;20041;-74
2021/12/25 15:37:49;;;;;;;23.33;9.48;;;;;;;;;;5007634;28;20117;-77
2021/12/25 15:40:19;;;;;;;18.63;10.75;;;;;;;;;;4992783;28;20046;-74
2021/12/25 15:42:45;;;;;;;20.75;8.85;;;;;;;;;;4993990;28;20112;-73
2021/12/25 15:45:11;;;;;;;24.80;10.77;;;;;;;;;;5009465;28;20120;-74
2021/12/25 15:47:38;;;;;;;22.85;9.85;;;;;;;;;;5008864;28;20125;-74
2021/12/25 15:50:04;;;;;;;;;;;;;;;;;;4993687;28;20506;-74
2021/12/25 15:52:31;;;;;;;18.50;9.43;;;;;;;;;;5008652;28;20014;-74
2021/12/25 15:54:56;;;;;;;23.20;10.25;;;;;;;;;;4992971;28;20034;-74
2021/12/25 15:57:25;;;;;;;20.50;10.57;;;;;;;;;;4992409;28;20140;-74
2021/12/25 15:59:51;;;;;;;22.85;10.77;;;;;;;;;;4991817;28;20105;-73
2021/12/25 16:02:21;;;;;;;23.65;11.35;;;;;;;;;;4994510;28;20042;-74